sensor_id;sensor_type;location;lat;lon;timestamp;pressure;altitude;pressure_sealevel;temperature;humidity
52291;BME280;39663;45.432;28.050;2023-03-23T00:00:16;101345.93;;;10.16;51.82
52291;BME280;39663;45.432;28.050;2023-03-23T00:00:47;101344.94;;;10.11;52.49
52291;BME280;39663;45.432;28.050;2023-03-23T00:01:21;101345.53;;;10.19;51.81
52291;BME280;39663;45.432;28.050;2023-03-23T00:01:53;101345.01;;;9.71;51.82
52291;BME280;39663;45.432;28.050;2023-03-23T00:02:25;101344.15;;;9.64;52.38
52291;BME280;39663;45.432;28.050;2023-03-23T00:02:57;101343.81;;;9.72;52.60
52291;BME280;39663;45.432;28.050;2023-03-23T00:03:29;101343.59;;;10.13;52.39
52291;BME280;39663;45.432;28.050;2023-03-23T00:04:01;101343.45;;;10.16;52.06
52291;BME280;39663;45.432;28.050;2023-03-23T00:04:33;101342.77;;;10.08;52.20
52291;BME280;39663;45.432;28.050;2023-03-23T00:05:06;101343.04;;;10.24;52.89
52291;BME280;39663;45.432;28.050;2023-03-23T00:05:39;101345.20;;;10.45;52.84
52291;BME280;39663;45.432;28.050;2023-03-23T00:06:11;101341.49;;;10.65;52.09
52291;BME280;39663;45.432;28.050;2023-03-23T00:06:43;101341.11;;;10.60;50.95
52291;BME280;39663;45.432;28.050;2023-03-23T00:07:14;101343.86;;;10.66;52.14
52291;BME280;39663;45.432;28.050;2023-03-23T00:07:46;101342.15;;;10.78;51.62
52291;BME280;39663;45.432;28.050;2023-03-23T00:08:17;101341.32;;;10.81;51.00
52291;BME280;39663;45.432;28.050;2023-03-23T00:08:51;101343.63;;;10.40;51.29
52291;BME280;39663;45.432;28.050;2023-03-23T00:09:23;101344.94;;;10.44;50.92
52291;BME280;39663;45.432;28.050;2023-03-23T00:09:55;101345.18;;;10.13;50.95
52291;BME280;39663;45.432;28.050;2023-03-23T00:10:26;101341.82;;;10.44;50.54
52291;BME280;39663;45.432;28.050;2023-03-23T00:10:58;101345.05;;;10.08;52.02
52291;BME280;39663;45.432;28.050;2023-03-23T00:11:31;101344.14;;;10.12;51.86
52291;BME280;39663;45.432;28.050;2023-03-23T00:12:03;101343.23;;;9.97;52.06
52291;BME280;39663;45.432;28.050;2023-03-23T00:12:35;101343.45;;;9.14;53.18
52291;BME280;39663;45.432;28.050;2023-03-23T00:13:06;101343.81;;;8.96;53.57
52291;BME280;39663;45.432;28.050;2023-03-23T00:13:38;101346.79;;;8.37;54.53
52291;BME280;39663;45.432;28.050;2023-03-23T00:14:10;101342.59;;;8.73;54.16
52291;BME280;39663;45.432;28.050;2023-03-23T00:14:42;101342.41;;;9.07;53.85
52291;BME280;39663;45.432;28.050;2023-03-23T00:15:14;101342.14;;;9.00;53.75
52291;BME280;39663;45.432;28.050;2023-03-23T00:15:46;101341.33;;;9.00;53.59
52291;BME280;39663;45.432;28.050;2023-03-23T00:16:19;101342.72;;;8.79;54.94
52291;BME280;39663;45.432;28.050;2023-03-23T00:16:51;101341.18;;;8.85;54.58
52291;BME280;39663;45.432;28.050;2023-03-23T00:17:23;101344.89;;;8.41;54.70
52291;BME280;39663;45.432;28.050;2023-03-23T00:17:54;101340.63;;;8.80;54.30
52291;BME280;39663;45.432;28.050;2023-03-23T00:18:26;101341.84;;;9.01;53.79
52291;BME280;39663;45.432;28.050;2023-03-23T00:18:59;101340.25;;;9.24;53.43
52291;BME280;39663;45.432;28.050;2023-03-23T00:19:32;101344.30;;;8.94;54.20
52291;BME280;39663;45.432;28.050;2023-03-23T00:20:04;101342.15;;;8.60;54.54
52291;BME280;39663;45.432;28.050;2023-03-23T00:20:36;101339.83;;;9.20;54.01
52291;BME280;39663;45.432;28.050;2023-03-23T00:21:07;101341.10;;;8.66;54.68
52291;BME280;39663;45.432;28.050;2023-03-23T00:21:40;101335.83;;;9.02;54.44
52291;BME280;39663;45.432;28.050;2023-03-23T00:22:13;101337.13;;;9.14;53.30
52291;BME280;39663;45.432;28.050;2023-03-23T00:22:45;101336.96;;;9.68;52.88
52291;BME280;39663;45.432;28.050;2023-03-23T00:23:17;101335.62;;;9.40;52.83
52291;BME280;39663;45.432;28.050;2023-03-23T00:23:49;101338.20;;;9.22;53.53
52291;BME280;39663;45.432;28.050;2023-03-23T00:24:21;101338.46;;;9.58;53.25
52291;BME280;39663;45.432;28.050;2023-03-23T00:24:53;101338.04;;;8.82;53.87
52291;BME280;39663;45.432;28.050;2023-03-23T00:25:24;101343.26;;;8.95;54.57
52291;BME280;39663;45.432;28.050;2023-03-23T00:25:56;101342.30;;;8.66;54.67
52291;BME280;39663;45.432;28.050;2023-03-23T00:26:28;101341.83;;;8.46;55.59
52291;BME280;39663;45.432;28.050;2023-03-23T00:27:00;101343.47;;;7.87;56.50
52291;BME280;39663;45.432;28.050;2023-03-23T00:27:31;101343.48;;;7.85;56.62
52291;BME280;39663;45.432;28.050;2023-03-23T00:28:03;101344.46;;;7.07;58.05
52291;BME280;39663;45.432;28.050;2023-03-23T00:28:35;101345.27;;;6.89;58.89
52291;BME280;39663;45.432;28.050;2023-03-23T00:29:10;101346.77;;;7.31;58.02
52291;BME280;39663;45.432;28.050;2023-03-23T00:29:42;101344.13;;;7.71;57.53
52291;BME280;39663;45.432;28.050;2023-03-23T00:30:14;101343.37;;;8.09;56.46
52291;BME280;39663;45.432;28.050;2023-03-23T00:30:46;101340.03;;;8.19;56.31
52291;BME280;39663;45.432;28.050;2023-03-23T00:31:18;101343.81;;;7.85;56.70
52291;BME280;39663;45.432;28.050;2023-03-23T00:31:49;101340.68;;;7.57;57.57
52291;BME280;39663;45.432;28.050;2023-03-23T00:32:23;101342.73;;;7.28;58.21
52291;BME280;39663;45.432;28.050;2023-03-23T00:32:55;101343.30;;;7.23;58.47
52291;BME280;39663;45.432;28.050;2023-03-23T00:33:28;101342.42;;;7.03;58.92
52291;BME280;39663;45.432;28.050;2023-03-23T00:34:01;101342.17;;;7.09;58.76
52291;BME280;39663;45.432;28.050;2023-03-23T00:34:33;101339.15;;;6.89;59.29
52291;BME280;39663;45.432;28.050;2023-03-23T00:35:05;101337.87;;;7.80;57.22
52291;BME280;39663;45.432;28.050;2023-03-23T00:35:36;101337.58;;;7.32;58.00
52291;BME280;39663;45.432;28.050;2023-03-23T00:36:09;101337.71;;;6.96;58.99
52291;BME280;39663;45.432;28.050;2023-03-23T00:36:41;101338.49;;;6.79;59.79
52291;BME280;39663;45.432;28.050;2023-03-23T00:37:13;101335.56;;;7.77;57.79
52291;BME280;39663;45.432;28.050;2023-03-23T00:37:44;101336.29;;;7.89;57.12
52291;BME280;39663;45.432;28.050;2023-03-23T00:38:16;101338.07;;;7.25;58.59
52291;BME280;39663;45.432;28.050;2023-03-23T00:38:47;101337.64;;;7.51;57.79
52291;BME280;39663;45.432;28.050;2023-03-23T00:39:19;101335.10;;;7.67;57.74
52291;BME280;39663;45.432;28.050;2023-03-23T00:39:51;101335.02;;;8.02;57.02
52291;BME280;39663;45.432;28.050;2023-03-23T00:40:22;101333.81;;;8.81;55.62
52291;BME280;39663;45.432;28.050;2023-03-23T00:40:54;101331.80;;;8.20;56.28
52291;BME280;39663;45.432;28.050;2023-03-23T00:41:27;101331.76;;;8.16;56.39
52291;BME280;39663;45.432;28.050;2023-03-23T00:41:59;101330.01;;;8.78;55.19
52291;BME280;39663;45.432;28.050;2023-03-23T00:42:30;101328.60;;;9.18;54.69
52291;BME280;39663;45.432;28.050;2023-03-23T00:43:03;101327.53;;;9.15;54.17
52291;BME280;39663;45.432;28.050;2023-03-23T00:43:34;101325.60;;;9.11;53.77
52291;BME280;39663;45.432;28.050;2023-03-23T00:44:06;101325.93;;;9.27;53.69
52291;BME280;39663;45.432;28.050;2023-03-23T00:44:37;101327.10;;;9.53;53.67
52291;BME280;39663;45.432;28.050;2023-03-23T00:45:09;101331.12;;;8.00;55.98
52291;BME280;39663;45.432;28.050;2023-03-23T00:45:41;101329.23;;;8.32;55.84
52291;BME280;39663;45.432;28.050;2023-03-23T00:46:13;101331.07;;;7.90;57.08
52291;BME280;39663;45.432;28.050;2023-03-23T00:46:46;101331.05;;;7.72;57.31
52291;BME280;39663;45.432;28.050;2023-03-23T00:47:18;101331.35;;;7.07;58.42
52291;BME280;39663;45.432;28.050;2023-03-23T00:47:49;101330.88;;;6.75;59.42
52291;BME280;39663;45.432;28.050;2023-03-23T00:48:21;101331.00;;;7.01;59.05
52291;BME280;39663;45.432;28.050;2023-03-23T00:48:54;101329.73;;;7.71;57.75
52291;BME280;39663;45.432;28.050;2023-03-23T00:49:26;101331.09;;;7.16;58.75
52291;BME280;39663;45.432;28.050;2023-03-23T00:49:58;101327.53;;;7.46;58.14
52291;BME280;39663;45.432;28.050;2023-03-23T00:50:30;101326.52;;;7.64;57.93
52291;BME280;39663;45.432;28.050;2023-03-23T00:51:03;101324.77;;;8.08;56.86
52291;BME280;39663;45.432;28.050;2023-03-23T00:51:34;101324.42;;;8.16;56.60
52291;BME280;39663;45.432;28.050;2023-03-23T00:52:07;101326.59;;;8.59;55.42
52291;BME280;39663;45.432;28.050;2023-03-23T00:52:39;101323.33;;;8.19;56.01
52291;BME280;39663;45.432;28.050;2023-03-23T00:53:10;101324.94;;;8.21;56.05
52291;BME280;39663;45.432;28.050;2023-03-23T00:53:42;101324.14;;;8.52;55.54
52291;BME280;39663;45.432;28.050;2023-03-23T00:54:13;101325.10;;;7.60;56.90
52291;BME280;39663;45.432;28.050;2023-03-23T00:54:45;101321.67;;;8.32;56.12
52291;BME280;39663;45.432;28.050;2023-03-23T00:55:17;101325.30;;;7.29;57.33
52291;BME280;39663;45.432;28.050;2023-03-23T00:55:49;101326.93;;;7.01;58.69
52291;BME280;39663;45.432;28.050;2023-03-23T00:56:20;101324.31;;;7.92;57.04
52291;BME280;39663;45.432;28.050;2023-03-23T00:56:53;101324.96;;;8.03;56.43
52291;BME280;39663;45.432;28.050;2023-03-23T00:57:25;101326.95;;;7.01;57.92
52291;BME280;39663;45.432;28.050;2023-03-23T00:57:56;101328.42;;;6.86;59.09
52291;BME280;39663;45.432;28.050;2023-03-23T00:58:28;101326.96;;;6.55;59.36
52291;BME280;39663;45.432;28.050;2023-03-23T00:59:00;101325.24;;;6.47;59.78
52291;BME280;39663;45.432;28.050;2023-03-23T00:59:31;101325.21;;;6.30;60.34
52291;BME280;39663;45.432;28.050;2023-03-23T01:00:04;101325.86;;;6.17;60.43
52291;BME280;39663;45.432;28.050;2023-03-23T01:00:36;101325.92;;;6.45;60.04
52291;BME280;39663;45.432;28.050;2023-03-23T01:01:08;101326.60;;;6.83;59.41
52291;BME280;39663;45.432;28.050;2023-03-23T01:01:41;101326.11;;;7.27;58.34
52291;BME280;39663;45.432;28.050;2023-03-23T01:02:12;101325.60;;;7.51;58.29
52291;BME280;39663;45.432;28.050;2023-03-23T01:02:44;101326.17;;;7.95;57.62
52291;BME280;39663;45.432;28.050;2023-03-23T01:03:15;101327.77;;;8.23;58.10
52291;BME280;39663;45.432;28.050;2023-03-23T01:03:47;101323.57;;;8.30;57.85
52291;BME280;39663;45.432;28.050;2023-03-23T01:04:19;101321.52;;;8.33;56.94
52291;BME280;39663;45.432;28.050;2023-03-23T01:04:50;101322.60;;;8.43;56.47
52291;BME280;39663;45.432;28.050;2023-03-23T01:05:22;101320.92;;;8.66;56.24
52291;BME280;39663;45.432;28.050;2023-03-23T01:05:54;101322.12;;;8.60;55.33
52291;BME280;39663;45.432;28.050;2023-03-23T01:06:26;101319.46;;;8.20;55.74
52291;BME280;39663;45.432;28.050;2023-03-23T01:06:58;101320.34;;;7.92;56.41
52291;BME280;39663;45.432;28.050;2023-03-23T01:07:30;101322.18;;;7.84;56.95
52291;BME280;39663;45.432;28.050;2023-03-23T01:08:02;101322.59;;;7.37;57.07
52291;BME280;39663;45.432;28.050;2023-03-23T01:08:35;101322.14;;;7.26;57.79
52291;BME280;39663;45.432;28.050;2023-03-23T01:09:08;101318.46;;;8.54;55.93
52291;BME280;39663;45.432;28.050;2023-03-23T01:09:40;101317.91;;;8.72;54.91
52291;BME280;39663;45.432;28.050;2023-03-23T01:10:13;101316.21;;;8.87;54.23
52291;BME280;39663;45.432;28.050;2023-03-23T01:10:45;101316.64;;;7.86;55.81
52291;BME280;39663;45.432;28.050;2023-03-23T01:11:18;101314.99;;;7.74;56.34
52291;BME280;39663;45.432;28.050;2023-03-23T01:11:50;101317.54;;;7.79;55.87
52291;BME280;39663;45.432;28.050;2023-03-23T01:12:23;101318.93;;;7.40;57.06
52291;BME280;39663;45.432;28.050;2023-03-23T01:12:55;101320.21;;;7.11;57.68
52291;BME280;39663;45.432;28.050;2023-03-23T01:13:26;101318.00;;;7.35;56.93
52291;BME280;39663;45.432;28.050;2023-03-23T01:13:58;101319.87;;;7.23;57.80
52291;BME280;39663;45.432;28.050;2023-03-23T01:14:30;101319.73;;;7.39;57.55
52291;BME280;39663;45.432;28.050;2023-03-23T01:15:01;101319.96;;;7.04;58.24
52291;BME280;39663;45.432;28.050;2023-03-23T01:15:33;101317.86;;;7.05;57.62
52291;BME280;39663;45.432;28.050;2023-03-23T01:16:05;101318.56;;;7.03;57.70
52291;BME280;39663;45.432;28.050;2023-03-23T01:16:37;101317.16;;;7.36;58.12
52291;BME280;39663;45.432;28.050;2023-03-23T01:17:09;101318.61;;;7.80;57.48
52291;BME280;39663;45.432;28.050;2023-03-23T01:17:41;101315.65;;;7.94;56.18
52291;BME280;39663;45.432;28.050;2023-03-23T01:18:13;101316.18;;;8.03;56.16
52291;BME280;39663;45.432;28.050;2023-03-23T01:18:45;101318.15;;;7.94;57.03
52291;BME280;39663;45.432;28.050;2023-03-23T01:19:16;101315.49;;;8.53;56.56
52291;BME280;39663;45.432;28.050;2023-03-23T01:19:48;101315.10;;;8.13;56.12
52291;BME280;39663;45.432;28.050;2023-03-23T01:20:20;101312.38;;;8.39;54.85
52291;BME280;39663;45.432;28.050;2023-03-23T01:20:51;101309.80;;;8.90;55.15
52291;BME280;39663;45.432;28.050;2023-03-23T01:21:23;101309.83;;;8.93;54.29
52291;BME280;39663;45.432;28.050;2023-03-23T01:21:55;101309.89;;;8.94;54.65
52291;BME280;39663;45.432;28.050;2023-03-23T01:22:26;101310.93;;;8.95;54.38
52291;BME280;39663;45.432;28.050;2023-03-23T01:22:58;101308.95;;;8.68;54.03
52291;BME280;39663;45.432;28.050;2023-03-23T01:23:31;101309.74;;;8.01;53.83
52291;BME280;39663;45.432;28.050;2023-03-23T01:24:03;101308.20;;;8.33;53.89
52291;BME280;39663;45.432;28.050;2023-03-23T01:24:35;101310.62;;;8.96;53.57
52291;BME280;39663;45.432;28.050;2023-03-23T01:25:08;101309.04;;;9.04;53.00
52291;BME280;39663;45.432;28.050;2023-03-23T01:25:40;101307.72;;;9.48;52.96
52291;BME280;39663;45.432;28.050;2023-03-23T01:26:14;101308.19;;;9.62;53.03
52291;BME280;39663;45.432;28.050;2023-03-23T01:26:46;101307.76;;;9.77;52.60
52291;BME280;39663;45.432;28.050;2023-03-23T01:27:18;101307.30;;;9.28;51.87
52291;BME280;39663;45.432;28.050;2023-03-23T01:27:50;101308.76;;;9.48;52.38
52291;BME280;39663;45.432;28.050;2023-03-23T01:28:21;101307.99;;;9.61;51.91
52291;BME280;39663;45.432;28.050;2023-03-23T01:28:53;101309.02;;;8.84;53.50
52291;BME280;39663;45.432;28.050;2023-03-23T01:29:25;101308.50;;;8.83;53.27
52291;BME280;39663;45.432;28.050;2023-03-23T01:29:57;101309.45;;;8.96;53.63
52291;BME280;39663;45.432;28.050;2023-03-23T01:30:28;101308.60;;;8.74;53.17
52291;BME280;39663;45.432;28.050;2023-03-23T01:31:01;101308.97;;;9.22;52.75
52291;BME280;39663;45.432;28.050;2023-03-23T01:31:33;101308.79;;;9.21;52.35
52291;BME280;39663;45.432;28.050;2023-03-23T01:32:05;101307.84;;;9.44;52.29
52291;BME280;39663;45.432;28.050;2023-03-23T01:32:36;101310.22;;;8.94;53.02
52291;BME280;39663;45.432;28.050;2023-03-23T01:33:08;101310.00;;;8.71;53.25
52291;BME280;39663;45.432;28.050;2023-03-23T01:33:40;101310.49;;;9.02;52.08
52291;BME280;39663;45.432;28.050;2023-03-23T01:34:12;101312.63;;;9.02;52.80
52291;BME280;39663;45.432;28.050;2023-03-23T01:34:44;101310.16;;;8.84;52.61
52291;BME280;39663;45.432;28.050;2023-03-23T01:35:16;101315.36;;;8.31;53.74
52291;BME280;39663;45.432;28.050;2023-03-23T01:35:48;101311.34;;;8.92;53.43
52291;BME280;39663;45.432;28.050;2023-03-23T01:36:22;101309.34;;;8.58;53.32
52291;BME280;39663;45.432;28.050;2023-03-23T01:36:54;101309.36;;;9.16;53.79
52291;BME280;39663;45.432;28.050;2023-03-23T01:37:26;101310.48;;;8.92;53.69
52291;BME280;39663;45.432;28.050;2023-03-23T01:37:57;101310.01;;;9.28;54.15
52291;BME280;39663;45.432;28.050;2023-03-23T01:38:29;101309.32;;;9.20;53.07
52291;BME280;39663;45.432;28.050;2023-03-23T01:39:01;101307.18;;;9.08;53.09
52291;BME280;39663;45.432;28.050;2023-03-23T01:39:35;101309.10;;;9.29;53.08
52291;BME280;39663;45.432;28.050;2023-03-23T01:40:08;101308.02;;;8.81;52.98
52291;BME280;39663;45.432;28.050;2023-03-23T01:40:40;101307.26;;;9.27;53.11
52291;BME280;39663;45.432;28.050;2023-03-23T01:41:12;101307.71;;;9.34;53.51
52291;BME280;39663;45.432;28.050;2023-03-23T01:41:44;101307.20;;;9.46;53.63
52291;BME280;39663;45.432;28.050;2023-03-23T01:42:15;101307.07;;;9.59;53.46
52291;BME280;39663;45.432;28.050;2023-03-23T01:42:47;101306.73;;;9.47;52.46
52291;BME280;39663;45.432;28.050;2023-03-23T01:43:18;101308.21;;;9.80;52.54
52291;BME280;39663;45.432;28.050;2023-03-23T01:43:59;101307.75;;;9.65;52.27
52291;BME280;39663;45.432;28.050;2023-03-23T01:45:32;101308.34;;;9.70;53.10
52291;BME280;39663;45.432;28.050;2023-03-23T01:46:05;101306.45;;;9.76;52.70
52291;BME280;39663;45.432;28.050;2023-03-23T01:46:36;101309.16;;;10.25;51.46
52291;BME280;39663;45.432;28.050;2023-03-23T01:47:08;101309.85;;;9.91;51.99
52291;BME280;39663;45.432;28.050;2023-03-23T01:47:39;101312.56;;;10.21;51.75
52291;BME280;39663;45.432;28.050;2023-03-23T01:48:15;101310.43;;;10.13;51.56
52291;BME280;39663;45.432;28.050;2023-03-23T01:48:49;101310.32;;;10.40;50.42
52291;BME280;39663;45.432;28.050;2023-03-23T01:49:24;101311.50;;;10.28;50.51
52291;BME280;39663;45.432;28.050;2023-03-23T01:49:57;101311.40;;;10.06;50.25
52291;BME280;39663;45.432;28.050;2023-03-23T01:50:31;101311.64;;;9.85;50.57
52291;BME280;39663;45.432;28.050;2023-03-23T01:51:08;101310.28;;;10.01;51.05
52291;BME280;39663;45.432;28.050;2023-03-23T01:51:44;101311.66;;;10.04;51.07
52291;BME280;39663;45.432;28.050;2023-03-23T01:52:22;101310.42;;;9.63;50.89
52291;BME280;39663;45.432;28.050;2023-03-23T01:52:56;101310.24;;;9.60;51.41
52291;BME280;39663;45.432;28.050;2023-03-23T01:53:34;101311.32;;;9.59;51.13
52291;BME280;39663;45.432;28.050;2023-03-23T01:54:10;101309.81;;;9.71;50.86
52291;BME280;39663;45.432;28.050;2023-03-23T01:54:42;101312.38;;;9.70;50.95
52291;BME280;39663;45.432;28.050;2023-03-23T01:55:15;101312.33;;;9.86;50.43
52291;BME280;39663;45.432;28.050;2023-03-23T01:55:49;101313.53;;;9.75;50.74
52291;BME280;39663;45.432;28.050;2023-03-23T01:56:27;101316.59;;;8.96;52.25
52291;BME280;39663;45.432;28.050;2023-03-23T01:57:03;101317.62;;;9.13;52.29
52291;BME280;39663;45.432;28.050;2023-03-23T01:57:35;101316.71;;;9.51;52.33
52291;BME280;39663;45.432;28.050;2023-03-23T01:58:08;101317.85;;;8.87;52.51
52291;BME280;39663;45.432;28.050;2023-03-23T01:58:41;101316.09;;;9.38;51.89
52291;BME280;39663;45.432;28.050;2023-03-23T01:59:13;101314.17;;;9.64;51.39
52291;BME280;39663;45.432;28.050;2023-03-23T01:59:49;101316.88;;;9.22;51.78
52291;BME280;39663;45.432;28.050;2023-03-23T02:00:21;101315.38;;;9.45;51.86
52291;BME280;39663;45.432;28.050;2023-03-23T02:00:53;101316.84;;;9.45;51.86
52291;BME280;39663;45.432;28.050;2023-03-23T02:01:26;101317.26;;;9.49;52.02
52291;BME280;39663;45.432;28.050;2023-03-23T02:02:12;101317.12;;;9.72;51.83
52291;BME280;39663;45.432;28.050;2023-03-23T02:02:46;101316.75;;;9.55;51.76
52291;BME280;39663;45.432;28.050;2023-03-23T02:03:18;101322.64;;;8.95;53.23
52291;BME280;39663;45.432;28.050;2023-03-23T02:03:52;101321.13;;;8.99;53.71
52291;BME280;39663;45.432;28.050;2023-03-23T02:04:25;101323.39;;;8.96;52.72
52291;BME280;39663;45.432;28.050;2023-03-23T02:05:01;101321.58;;;9.46;53.18
52291;BME280;39663;45.432;28.050;2023-03-23T02:05:38;101320.26;;;9.49;52.85
52291;BME280;39663;45.432;28.050;2023-03-23T02:06:10;101322.31;;;9.30;52.97
52291;BME280;39663;45.432;28.050;2023-03-23T02:06:42;101322.81;;;9.09;53.18
52291;BME280;39663;45.432;28.050;2023-03-23T02:07:16;101323.00;;;9.42;53.23
52291;BME280;39663;45.432;28.050;2023-03-23T02:07:50;101324.58;;;9.10;52.95
52291;BME280;39663;45.432;28.050;2023-03-23T02:08:23;101322.82;;;9.13;52.78
52291;BME280;39663;45.432;28.050;2023-03-23T02:08:56;101323.42;;;9.56;52.46
52291;BME280;39663;45.432;28.050;2023-03-23T02:09:28;101321.52;;;9.74;52.13
52291;BME280;39663;45.432;28.050;2023-03-23T02:10:00;101323.38;;;9.44;52.62
52291;BME280;39663;45.432;28.050;2023-03-23T02:10:32;101322.43;;;9.71;52.53
52291;BME280;39663;45.432;28.050;2023-03-23T02:11:13;101324.11;;;9.52;52.70
52291;BME280;39663;45.432;28.050;2023-03-23T02:11:45;101324.29;;;9.67;52.60
52291;BME280;39663;45.432;28.050;2023-03-23T02:12:17;101323.44;;;9.28;52.68
52291;BME280;39663;45.432;28.050;2023-03-23T02:12:48;101321.89;;;9.58;52.64
52291;BME280;39663;45.432;28.050;2023-03-23T02:13:20;101323.25;;;9.64;52.48
52291;BME280;39663;45.432;28.050;2023-03-23T02:13:52;101321.09;;;9.57;52.86
52291;BME280;39663;45.432;28.050;2023-03-23T02:14:25;101320.10;;;9.56;52.57
52291;BME280;39663;45.432;28.050;2023-03-23T02:14:58;101319.87;;;9.29;52.88
52291;BME280;39663;45.432;28.050;2023-03-23T02:15:38;101319.62;;;9.16;52.97
52291;BME280;39663;45.432;28.050;2023-03-23T02:16:19;101319.39;;;9.20;53.25
52291;BME280;39663;45.432;28.050;2023-03-23T02:16:57;101319.81;;;9.77;53.19
52291;BME280;39663;45.432;28.050;2023-03-23T02:17:38;101320.33;;;9.40;53.26
52291;BME280;39663;45.432;28.050;2023-03-23T02:18:22;101321.48;;;9.40;53.35
52291;BME280;39663;45.432;28.050;2023-03-23T02:19:07;101316.89;;;10.03;52.39
52291;BME280;39663;45.432;28.050;2023-03-23T02:19:59;101316.72;;;9.87;52.50
52291;BME280;39663;45.432;28.050;2023-03-23T02:20:57;101317.08;;;9.60;52.23
52291;BME280;39663;45.432;28.050;2023-03-23T02:23:28;101319.79;;;10.26;51.64
52291;BME280;39663;45.432;28.050;2023-03-23T02:24:57;101317.05;;;10.51;51.63
52291;BME280;39663;45.432;28.050;2023-03-23T02:25:40;101318.73;;;10.41;51.81
52291;BME280;39663;45.432;28.050;2023-03-23T02:26:30;101315.18;;;10.57;50.48
52291;BME280;39663;45.432;28.050;2023-03-23T02:27:08;101315.65;;;10.65;51.33
52291;BME280;39663;45.432;28.050;2023-03-23T02:28:07;101314.81;;;10.70;51.45
52291;BME280;39663;45.432;28.050;2023-03-23T02:29:09;101316.12;;;10.80;50.72
52291;BME280;39663;45.432;28.050;2023-03-23T02:30:05;101316.44;;;11.05;49.81
52291;BME280;39663;45.432;28.050;2023-03-23T02:30:47;101314.94;;;10.96;49.50
52291;BME280;39663;45.432;28.050;2023-03-23T02:31:31;101315.42;;;10.75;50.49
52291;BME280;39663;45.432;28.050;2023-03-23T02:32:16;101317.52;;;11.06;49.32
52291;BME280;39663;45.432;28.050;2023-03-23T02:33:21;101315.97;;;10.63;50.19
52291;BME280;39663;45.432;28.050;2023-03-23T02:33:56;101316.27;;;10.83;49.44
52291;BME280;39663;45.432;28.050;2023-03-23T02:34:33;101316.57;;;10.64;49.73
52291;BME280;39663;45.432;28.050;2023-03-23T02:35:10;101318.09;;;10.69;50.84
52291;BME280;39663;45.432;28.050;2023-03-23T02:35:45;101317.83;;;10.59;50.64
52291;BME280;39663;45.432;28.050;2023-03-23T02:36:23;101316.90;;;10.95;50.21
52291;BME280;39663;45.432;28.050;2023-03-23T02:37:02;101314.28;;;10.24;49.99
52291;BME280;39663;45.432;28.050;2023-03-23T02:37:38;101318.95;;;9.78;50.97
52291;BME280;39663;45.432;28.050;2023-03-23T02:38:15;101318.64;;;10.16;50.98
52291;BME280;39663;45.432;28.050;2023-03-23T02:38:55;101314.76;;;10.26;50.95
52291;BME280;39663;45.432;28.050;2023-03-23T02:39:32;101315.68;;;10.53;50.81
52291;BME280;39663;45.432;28.050;2023-03-23T02:40:09;101314.88;;;10.23;50.51
52291;BME280;39663;45.432;28.050;2023-03-23T02:40:45;101312.90;;;10.52;51.17
52291;BME280;39663;45.432;28.050;2023-03-23T02:41:21;101315.62;;;10.61;50.66
52291;BME280;39663;45.432;28.050;2023-03-23T02:41:56;101315.74;;;10.37;51.26
52291;BME280;39663;45.432;28.050;2023-03-23T02:42:32;101313.87;;;10.42;50.37
52291;BME280;39663;45.432;28.050;2023-03-23T02:43:09;101314.49;;;10.28;50.38
52291;BME280;39663;45.432;28.050;2023-03-23T02:43:45;101316.44;;;10.52;50.17
52291;BME280;39663;45.432;28.050;2023-03-23T02:44:17;101314.21;;;10.52;50.26
52291;BME280;39663;45.432;28.050;2023-03-23T02:44:50;101316.28;;;10.06;50.84
52291;BME280;39663;45.432;28.050;2023-03-23T02:45:25;101317.31;;;10.16;50.80
52291;BME280;39663;45.432;28.050;2023-03-23T02:46:04;101312.66;;;10.36;50.97
52291;BME280;39663;45.432;28.050;2023-03-23T02:46:37;101311.48;;;10.48;50.71
52291;BME280;39663;45.432;28.050;2023-03-23T02:47:13;101311.08;;;10.19;50.48
52291;BME280;39663;45.432;28.050;2023-03-23T02:47:49;101311.15;;;10.44;51.81
52291;BME280;39663;45.432;28.050;2023-03-23T02:48:27;101309.64;;;10.56;50.20
52291;BME280;39663;45.432;28.050;2023-03-23T02:49:00;101308.88;;;10.51;51.53
52291;BME280;39663;45.432;28.050;2023-03-23T02:49:35;101307.47;;;10.40;50.51
52291;BME280;39663;45.432;28.050;2023-03-23T02:50:11;101307.93;;;10.18;50.41
52291;BME280;39663;45.432;28.050;2023-03-23T02:50:47;101304.44;;;10.47;51.18
52291;BME280;39663;45.432;28.050;2023-03-23T02:51:21;101305.49;;;10.59;50.34
52291;BME280;39663;45.432;28.050;2023-03-23T02:51:54;101308.26;;;10.56;50.26
52291;BME280;39663;45.432;28.050;2023-03-23T02:52:29;101307.57;;;10.31;51.52
52291;BME280;39663;45.432;28.050;2023-03-23T02:53:01;101305.75;;;10.57;50.49
52291;BME280;39663;45.432;28.050;2023-03-23T02:53:37;101307.51;;;10.64;50.92
52291;BME280;39663;45.432;28.050;2023-03-23T02:54:12;101309.46;;;10.74;50.91
52291;BME280;39663;45.432;28.050;2023-03-23T02:54:46;101310.11;;;10.64;50.13
52291;BME280;39663;45.432;28.050;2023-03-23T02:55:19;101310.10;;;10.88;49.53
52291;BME280;39663;45.432;28.050;2023-03-23T02:55:54;101311.86;;;10.65;49.93
52291;BME280;39663;45.432;28.050;2023-03-23T02:56:27;101311.02;;;10.60;49.98
52291;BME280;39663;45.432;28.050;2023-03-23T02:57:00;101314.08;;;10.82;49.29
52291;BME280;39663;45.432;28.050;2023-03-23T02:57:32;101312.38;;;10.76;49.60
52291;BME280;39663;45.432;28.050;2023-03-23T02:58:03;101312.83;;;10.61;50.13
52291;BME280;39663;45.432;28.050;2023-03-23T02:58:35;101314.82;;;9.94;50.32
52291;BME280;39663;45.432;28.050;2023-03-23T02:59:06;101310.30;;;10.48;50.22
52291;BME280;39663;45.432;28.050;2023-03-23T02:59:39;101311.92;;;10.55;51.24